createdAt,value
2023-05-14T00:01:00.976Z,62.80
2023-05-14T00:03:27.619Z,63.00
2023-05-14T00:05:54.197Z,63.40
2023-05-14T00:08:20.754Z,63.60
2023-05-14T00:10:47.278Z,63.80
2023-05-14T00:13:14.072Z,63.90
2023-05-14T00:15:40.770Z,63.90
2023-05-14T00:18:07.524Z,63.90
2023-05-14T00:20:34.095Z,64.00
2023-05-14T00:23:00.693Z,64.00
2023-05-14T00:25:27.309Z,64.10
2023-05-14T00:27:53.831Z,64.20
2023-05-14T00:30:20.513Z,64.30
2023-05-14T00:32:47.104Z,64.40
2023-05-14T00:35:13.679Z,64.40
2023-05-14T00:37:40.243Z,64.50
2023-05-14T00:40:08.402Z,64.40
2023-05-14T00:42:35.018Z,64.40
2023-05-14T00:45:01.592Z,64.30
2023-05-14T00:47:28.249Z,64.30
2023-05-14T00:49:54.836Z,64.10
2023-05-14T00:52:21.611Z,64.10
2023-05-14T00:54:49.005Z,64.00
2023-05-14T00:57:15.535Z,64.00
2023-05-14T00:59:42.641Z,64.00
2023-05-14T01:02:09.248Z,64.00
2023-05-14T01:04:36.014Z,64.10
2023-05-14T01:07:08.841Z,64.10
2023-05-14T01:09:54.822Z,64.10
2023-05-14T01:12:27.014Z,64.20
2023-05-14T01:15:15.232Z,64.10
2023-05-14T01:17:46.691Z,64.10
2023-05-14T01:20:13.419Z,64.00
2023-05-14T01:22:40.022Z,64.00
2023-05-14T01:25:06.940Z,63.90
2023-05-14T01:27:52.751Z,63.90
2023-05-14T01:30:21.931Z,63.90
2023-05-14T01:32:51.167Z,63.80
2023-05-14T01:35:18.234Z,63.80
2023-05-14T01:37:45.489Z,63.80
2023-05-14T01:40:12.557Z,63.90
2023-05-14T01:42:39.087Z,63.80
2023-05-14T01:45:05.813Z,63.80
2023-05-14T01:47:32.400Z,63.80
2023-05-14T01:49:58.934Z,63.80
2023-05-14T01:52:25.565Z,63.80
2023-05-14T01:54:52.119Z,63.80
2023-05-14T01:57:18.643Z,63.80
2023-05-14T01:59:45.200Z,63.90
2023-05-14T02:02:11.728Z,63.90
2023-05-14T02:04:38.326Z,63.80
2023-05-14T02:07:04.992Z,63.90
2023-05-14T02:09:31.541Z,63.90
2023-05-14T02:11:58.083Z,63.80
2023-05-14T02:14:24.595Z,63.80
2023-05-14T02:16:51.323Z,63.80
2023-05-14T02:19:17.880Z,63.80
2023-05-14T02:21:44.767Z,63.80
2023-05-14T02:24:11.257Z,63.80
2023-05-14T02:26:37.814Z,63.80
2023-05-14T02:29:04.435Z,63.80
2023-05-14T02:31:31.100Z,63.80
2023-05-14T02:33:57.630Z,63.90
2023-05-14T02:36:24.206Z,63.90
2023-05-14T02:38:50.808Z,63.90
2023-05-14T02:41:17.339Z,63.90
2023-05-14T02:43:43.876Z,63.90
2023-05-14T02:46:10.408Z,64.00
2023-05-14T02:48:36.950Z,64.00
2023-05-14T02:51:03.599Z,64.00
2023-05-14T02:53:30.132Z,64.00
2023-05-14T02:55:56.639Z,64.00
2023-05-14T02:58:27.831Z,64.00
2023-05-14T03:00:55.260Z,64.10
2023-05-14T03:03:22.212Z,64.10
2023-05-14T03:05:49.131Z,64.10
2023-05-14T03:08:15.660Z,64.10
2023-05-14T03:10:42.185Z,64.10
2023-05-14T03:13:08.755Z,64.10
2023-05-14T03:15:35.484Z,64.20
2023-05-14T03:18:02.070Z,64.20
2023-05-14T03:20:28.911Z,64.30
2023-05-14T03:22:56.132Z,64.40
2023-05-14T03:25:22.804Z,64.50
2023-05-14T03:27:49.510Z,64.50
2023-05-14T03:30:16.045Z,64.50
2023-05-14T03:32:42.929Z,64.70
2023-05-14T03:35:09.605Z,64.80
2023-05-14T03:37:36.166Z,64.90
2023-05-14T03:40:02.756Z,65.00
2023-05-14T03:42:29.272Z,65.20
2023-05-14T03:44:55.804Z,65.20
2023-05-14T03:47:22.384Z,65.30
2023-05-14T03:49:48.927Z,65.20
2023-05-14T03:52:15.501Z,65.20
2023-05-14T03:54:42.023Z,65.10
2023-05-14T03:57:08.535Z,65.00
2023-05-14T03:59:35.059Z,65.00
2023-05-14T04:02:01.848Z,65.00
2023-05-14T04:04:28.437Z,65.00
2023-05-14T04:06:55.040Z,65.10
2023-05-14T04:09:21.616Z,65.10
2023-05-14T04:11:48.133Z,65.10
2023-05-14T04:14:14.670Z,65.20
2023-05-14T04:16:41.312Z,65.20
2023-05-14T04:19:08.090Z,65.20
2023-05-14T04:21:34.653Z,65.20
2023-05-14T04:24:01.160Z,65.10
2023-05-14T04:26:28.073Z,65.10
2023-05-14T04:28:54.619Z,65.10
2023-05-14T04:31:21.238Z,65.00
2023-05-14T04:33:47.809Z,64.90
2023-05-14T04:36:14.456Z,64.80
2023-05-14T04:38:41.490Z,64.80
2023-05-14T04:41:08.072Z,64.80
2023-05-14T04:43:34.687Z,64.90
2023-05-14T04:46:01.901Z,64.90
2023-05-14T04:48:28.557Z,64.90
2023-05-14T04:50:55.190Z,65.00
2023-05-14T04:53:21.700Z,65.10
2023-05-14T04:55:48.210Z,65.10
2023-05-14T04:58:14.727Z,65.20
2023-05-14T05:00:41.784Z,65.10
2023-05-14T05:03:08.778Z,65.10
2023-05-14T05:05:35.440Z,65.00
2023-05-14T05:08:02.001Z,64.90
2023-05-14T05:10:28.981Z,64.90
2023-05-14T05:12:55.506Z,64.80
2023-05-14T05:15:22.892Z,64.80
2023-05-14T05:17:50.330Z,64.80
2023-05-14T05:20:17.011Z,64.80
2023-05-14T05:22:43.546Z,64.80
2023-05-14T05:25:12.014Z,64.80
2023-05-14T05:27:39.010Z,64.80
2023-05-14T05:30:06.355Z,64.90
2023-05-14T05:32:33.096Z,64.80
2023-05-14T05:34:59.768Z,64.80
2023-05-14T05:37:26.290Z,64.80
2023-05-14T05:39:53.892Z,64.60
2023-05-14T05:42:20.757Z,64.40
2023-05-14T05:44:47.346Z,64.30
2023-05-14T05:47:13.875Z,64.10
2023-05-14T05:49:40.433Z,64.00
2023-05-14T05:52:07.055Z,63.80
2023-05-14T05:54:34.027Z,63.40
2023-05-14T05:57:00.794Z,63.00
2023-05-14T05:59:27.324Z,62.60
2023-05-14T06:01:53.903Z,62.20
2023-05-14T06:04:20.456Z,62.00
2023-05-14T06:06:47.104Z,61.90
2023-05-14T06:09:13.629Z,61.60
2023-05-14T06:11:40.161Z,61.30
2023-05-14T06:14:06.758Z,61.20
2023-05-14T06:16:33.344Z,61.00
2023-05-14T06:18:59.964Z,60.90
2023-05-14T06:21:26.593Z,60.90
2023-05-14T06:23:53.140Z,60.90
2023-05-14T06:26:19.674Z,60.90
2023-05-14T06:28:46.325Z,60.70
2023-05-14T06:31:13.613Z,60.60
2023-05-14T06:33:40.182Z,60.30
2023-05-14T06:36:07.716Z,60.30
2023-05-14T06:38:34.249Z,60.40
2023-05-14T06:41:00.765Z,60.30
2023-05-14T06:43:27.464Z,60.40
2023-05-14T06:45:54.067Z,60.40
2023-05-14T06:48:20.857Z,60.50
2023-05-14T06:50:48.348Z,60.50
2023-05-14T06:53:15.247Z,60.50
2023-05-14T06:55:41.805Z,60.40
2023-05-14T06:58:08.812Z,60.20
2023-05-14T07:00:35.366Z,60.10
2023-05-14T07:03:01.921Z,60.00
2023-05-14T07:05:28.536Z,59.80
2023-05-14T07:07:55.190Z,59.60
2023-05-14T07:10:22.103Z,59.40
2023-05-14T07:12:49.062Z,58.90
2023-05-14T07:15:15.779Z,58.40
2023-05-14T07:17:42.465Z,58.30
2023-05-14T07:20:09.612Z,58.20
2023-05-14T07:22:36.123Z,58.20
2023-05-14T07:25:03.089Z,58.10
2023-05-14T07:27:29.719Z,58.10
2023-05-14T07:29:56.264Z,58.00
2023-05-14T07:32:25.019Z,57.90
2023-05-14T07:34:51.775Z,57.60
2023-05-14T07:37:18.783Z,57.40
2023-05-14T07:39:45.530Z,57.30
2023-05-14T07:42:19.374Z,57.10
2023-05-14T07:44:51.875Z,57.20
2023-05-14T07:47:18.557Z,57.30
2023-05-14T07:49:45.225Z,57.30
2023-05-14T07:52:11.820Z,57.50
2023-05-14T07:54:38.435Z,57.40
2023-05-14T07:57:05.169Z,57.50
2023-05-14T07:59:32.054Z,57.40
2023-05-14T08:01:58.628Z,57.10
2023-05-14T08:04:25.431Z,57.10
2023-05-14T08:06:52.120Z,56.70
2023-05-14T08:09:18.639Z,56.60
2023-05-14T08:11:45.232Z,56.20
2023-05-14T08:14:11.923Z,56.30
2023-05-14T08:16:38.780Z,56.10
2023-05-14T08:19:05.549Z,56.20
2023-05-14T08:21:32.724Z,56.00
2023-05-14T08:23:59.299Z,55.90
2023-05-14T08:26:26.005Z,55.40
2023-05-14T08:28:53.252Z,55.10
2023-05-14T08:31:19.897Z,55.10
2023-05-14T08:33:46.502Z,55.20
2023-05-14T08:36:13.750Z,55.20
2023-05-14T08:38:40.654Z,55.40
2023-05-14T08:41:07.367Z,55.50
2023-05-14T08:43:52.574Z,55.50
2023-05-14T08:46:22.163Z,55.40
2023-05-14T08:48:51.285Z,55.20
2023-05-14T08:51:17.849Z,55.30
2023-05-14T08:53:44.384Z,54.80
2023-05-14T08:56:12.761Z,54.90
2023-05-14T08:58:39.284Z,54.90
2023-05-14T09:01:05.874Z,54.70
2023-05-14T09:03:32.647Z,54.40
2023-05-14T09:06:00.294Z,53.90
2023-05-14T09:08:27.005Z,53.80
2023-05-14T09:10:53.533Z,53.70
2023-05-14T09:13:20.057Z,53.40
2023-05-14T09:15:47.945Z,53.40
2023-05-14T09:18:14.470Z,53.50
2023-05-14T09:20:41.098Z,53.70
2023-05-14T09:23:07.636Z,53.80
2023-05-14T09:25:34.247Z,53.70
2023-05-14T09:28:05.735Z,53.80
2023-05-14T09:30:34.095Z,53.90
2023-05-14T09:33:00.670Z,53.80
2023-05-14T09:35:27.265Z,53.70
2023-05-14T09:37:54.385Z,53.80
2023-05-14T09:40:22.215Z,53.90
2023-05-14T09:42:49.511Z,53.90
2023-05-14T09:45:16.632Z,53.90
2023-05-14T09:47:45.020Z,53.90
2023-05-14T09:50:12.214Z,53.70
2023-05-14T09:52:39.109Z,53.40
2023-05-14T09:55:06.311Z,53.50
2023-05-14T09:57:33.519Z,53.60
2023-05-14T10:00:00.337Z,53.70
2023-05-14T10:02:31.177Z,53.50
2023-05-14T10:05:00.245Z,53.20
2023-05-14T10:07:29.166Z,52.80
2023-05-14T10:09:59.675Z,52.80
2023-05-14T10:12:28.591Z,52.50
2023-05-14T10:14:57.438Z,52.40
2023-05-14T10:17:27.613Z,52.10
2023-05-14T10:19:56.916Z,52.20
2023-05-14T10:22:24.284Z,52.40
2023-05-14T10:24:53.997Z,52.80
2023-05-14T10:27:21.755Z,52.90
2023-05-14T10:29:53.358Z,53.00
2023-05-14T10:32:20.394Z,52.80
2023-05-14T10:34:48.121Z,52.80
2023-05-14T10:37:16.000Z,52.70
2023-05-14T10:39:45.668Z,52.30
2023-05-14T10:42:13.888Z,52.60
2023-05-14T10:44:52.751Z,52.70
2023-05-14T10:47:19.935Z,52.70
2023-05-14T10:49:49.065Z,52.80
2023-05-14T10:52:22.321Z,52.70
2023-05-14T10:54:52.893Z,52.20
2023-05-14T10:57:19.942Z,52.60
2023-05-14T10:59:53.214Z,52.70
2023-05-14T11:02:26.928Z,52.80
2023-05-14T11:05:03.274Z,52.80
2023-05-14T11:07:31.108Z,52.60
2023-05-14T11:10:08.279Z,52.60
2023-05-14T11:12:35.930Z,52.50
2023-05-14T11:15:03.899Z,52.40
2023-05-14T11:17:31.162Z,52.20
2023-05-14T11:19:58.093Z,52.00
2023-05-14T11:22:24.758Z,51.90
2023-05-14T11:24:51.308Z,51.90
2023-05-14T11:27:18.091Z,52.00
2023-05-14T11:29:46.051Z,51.80
2023-05-14T11:32:13.097Z,51.80
2023-05-14T11:34:39.816Z,51.70
2023-05-14T11:37:06.970Z,51.40
2023-05-14T11:39:33.777Z,50.90
2023-05-14T11:42:03.023Z,51.30
2023-05-14T11:44:29.681Z,51.40
2023-05-14T11:47:01.185Z,51.40
2023-05-14T11:49:29.145Z,51.40
2023-05-14T11:51:59.453Z,51.10
2023-05-14T11:54:29.834Z,50.50
2023-05-14T11:56:56.821Z,50.50
2023-05-14T11:59:31.653Z,50.60
2023-05-14T12:01:58.604Z,50.40
2023-05-14T12:04:25.619Z,50.00
2023-05-14T12:06:52.962Z,50.10
2023-05-14T12:09:22.910Z,50.10
2023-05-14T12:11:50.686Z,49.80
2023-05-14T12:14:19.124Z,49.60
2023-05-14T12:16:46.926Z,49.40
2023-05-14T12:19:20.889Z,49.50
2023-05-14T12:21:48.373Z,49.40
2023-05-14T12:24:16.610Z,49.40
2023-05-14T12:26:50.846Z,49.30
2023-05-14T12:29:17.427Z,48.80
2023-05-14T12:31:47.640Z,48.70
2023-05-14T12:34:14.480Z,48.80
2023-05-14T12:36:41.127Z,49.00
2023-05-14T12:39:07.706Z,48.90
2023-05-14T12:41:34.251Z,48.40
2023-05-14T12:44:00.797Z,48.00
2023-05-14T12:46:27.666Z,48.40
2023-05-14T12:48:54.803Z,48.60
2023-05-14T12:51:21.505Z,48.50
2023-05-14T12:53:48.586Z,48.60
2023-05-14T12:56:15.190Z,48.80
2023-05-14T12:58:41.758Z,48.50
2023-05-14T13:01:08.803Z,48.40
2023-05-14T13:03:35.456Z,48.50
2023-05-14T13:06:02.159Z,48.40
2023-05-14T13:08:28.713Z,48.40
2023-05-14T13:10:55.706Z,48.40
2023-05-14T13:13:22.981Z,48.30
2023-05-14T13:15:49.587Z,48.50
2023-05-14T13:18:18.354Z,48.50
2023-05-14T13:20:45.713Z,48.30
2023-05-14T13:23:12.218Z,47.90
2023-05-14T13:25:38.769Z,47.90
2023-05-14T13:28:05.326Z,48.10
2023-05-14T13:30:32.305Z,47.80
2023-05-14T13:32:59.463Z,47.70
2023-05-14T13:35:26.327Z,47.50
2023-05-14T13:37:53.040Z,47.40
2023-05-14T13:40:19.616Z,47.30
2023-05-14T13:42:46.157Z,46.70
2023-05-14T13:45:13.078Z,46.80
2023-05-14T13:47:40.270Z,46.90
2023-05-14T13:50:07.278Z,46.90
2023-05-14T13:52:33.816Z,46.50
2023-05-14T13:55:00.359Z,46.60
2023-05-14T13:57:26.940Z,46.60
2023-05-14T13:59:53.480Z,45.90
2023-05-14T14:02:19.999Z,45.80
2023-05-14T14:04:46.588Z,45.90
2023-05-14T14:07:13.138Z,46.00
2023-05-14T14:09:39.642Z,45.40
2023-05-14T14:12:06.383Z,45.70
2023-05-14T14:14:32.955Z,45.80
2023-05-14T14:16:59.515Z,45.80
2023-05-14T14:19:26.070Z,45.60
2023-05-14T14:21:52.873Z,45.80
2023-05-14T14:24:19.611Z,45.90
2023-05-14T14:26:46.137Z,45.60
2023-05-14T14:29:12.671Z,45.70
2023-05-14T14:31:39.234Z,45.50
2023-05-14T14:34:06.069Z,45.30
2023-05-14T14:36:32.598Z,45.50
2023-05-14T14:38:59.179Z,45.40
2023-05-14T14:41:26.585Z,45.20
2023-05-14T14:43:53.182Z,45.30
2023-05-14T14:46:19.792Z,45.10
2023-05-14T14:48:46.417Z,45.10
2023-05-14T14:51:13.047Z,45.20
2023-05-14T14:53:40.432Z,45.50
2023-05-14T14:56:07.127Z,45.70
2023-05-14T14:58:33.906Z,45.60
2023-05-14T15:01:01.147Z,45.60
2023-05-14T15:03:27.916Z,45.20
2023-05-14T15:05:54.535Z,45.20
2023-05-14T15:08:24.360Z,45.00
2023-05-14T15:10:50.909Z,45.20
2023-05-14T15:13:17.569Z,45.20
2023-05-14T15:15:44.175Z,45.30
2023-05-14T15:18:10.799Z,44.80
2023-05-14T15:20:37.426Z,44.80
2023-05-14T15:23:04.108Z,44.80
2023-05-14T15:25:30.656Z,44.90
2023-05-14T15:27:57.548Z,45.00
2023-05-14T15:30:24.059Z,44.80
2023-05-14T15:32:50.666Z,44.70
2023-05-14T15:35:19.110Z,44.70
2023-05-14T15:37:45.664Z,44.70
2023-05-14T15:40:12.451Z,44.60
2023-05-14T15:42:40.254Z,44.50
2023-05-14T15:45:06.998Z,44.30
2023-05-14T15:47:33.787Z,44.50
2023-05-14T15:50:00.812Z,44.60
2023-05-14T15:52:27.574Z,44.40
2023-05-14T15:54:55.962Z,44.50
2023-05-14T15:57:22.742Z,44.40
2023-05-14T15:59:49.285Z,44.40
2023-05-14T16:02:15.880Z,44.30
2023-05-14T16:04:42.611Z,44.40
2023-05-14T16:07:14.964Z,44.20
2023-05-14T16:09:41.849Z,44.10
2023-05-14T16:12:08.631Z,44.30
2023-05-14T16:14:35.542Z,44.30
2023-05-14T16:17:02.347Z,44.40
2023-05-14T16:19:29.154Z,44.40
2023-05-14T16:21:55.658Z,44.60
2023-05-14T16:24:22.240Z,44.70
2023-05-14T16:26:48.766Z,44.70
2023-05-14T16:29:15.838Z,44.80
2023-05-14T16:31:42.452Z,44.70
2023-05-14T16:34:08.987Z,44.70
2023-05-14T16:36:35.635Z,44.80
2023-05-14T16:41:31.689Z,44.90
2023-05-14T16:43:58.208Z,45.10
2023-05-14T16:46:25.009Z,45.20
2023-05-14T16:48:51.615Z,45.30
2023-05-14T16:51:18.173Z,45.30
2023-05-14T16:53:44.704Z,45.40
2023-05-14T16:56:11.383Z,45.50
2023-05-14T16:58:38.015Z,45.70
2023-05-14T17:01:05.884Z,45.80
2023-05-14T17:03:33.418Z,45.80
2023-05-14T17:05:59.947Z,45.90
2023-05-14T17:08:31.724Z,46.00
2023-05-14T17:10:58.340Z,46.10
2023-05-14T17:13:24.901Z,46.10
2023-05-14T17:15:51.541Z,46.20
2023-05-14T17:18:18.116Z,46.30
2023-05-14T17:20:44.681Z,46.30
2023-05-14T17:23:11.196Z,46.40
2023-05-14T17:25:37.706Z,46.50
2023-05-14T17:28:04.310Z,46.50
2023-05-14T17:30:31.086Z,46.60
2023-05-14T17:32:57.681Z,46.70
2023-05-14T17:35:24.489Z,46.80
2023-05-14T17:37:51.247Z,46.90
2023-05-14T17:40:17.808Z,47.00
2023-05-14T17:42:45.422Z,47.10
2023-05-14T17:45:13.189Z,47.20
2023-05-14T17:47:39.859Z,47.30
2023-05-14T17:50:07.121Z,47.40
2023-05-14T17:52:33.710Z,47.50
2023-05-14T17:55:00.325Z,47.60
2023-05-14T17:57:27.006Z,47.70
2023-05-14T17:59:53.540Z,47.90
2023-05-14T18:02:20.064Z,48.10
2023-05-14T18:04:46.993Z,48.20
2023-05-14T18:07:13.704Z,48.30
2023-05-14T18:09:40.274Z,48.40
2023-05-14T18:12:07.163Z,48.50
2023-05-14T18:14:33.710Z,48.60
2023-05-14T18:17:00.297Z,48.80
2023-05-14T18:19:26.854Z,49.10
2023-05-14T18:21:55.427Z,49.20
2023-05-14T18:24:22.326Z,49.30
2023-05-14T18:26:48.838Z,49.40
2023-05-14T18:29:15.378Z,49.50
2023-05-14T18:31:41.909Z,49.70
2023-05-14T18:34:08.452Z,49.90
2023-05-14T18:36:35.022Z,50.10
2023-05-14T18:39:01.542Z,50.20
2023-05-14T18:41:28.135Z,50.20
2023-05-14T18:43:54.724Z,50.40
2023-05-14T18:46:21.293Z,50.50
2023-05-14T18:48:47.835Z,50.60
2023-05-14T18:51:14.481Z,50.70
2023-05-14T18:53:41.011Z,50.80
2023-05-14T18:56:07.978Z,51.00
2023-05-14T18:58:34.520Z,51.10
2023-05-14T19:01:01.089Z,51.30
2023-05-14T19:03:27.660Z,51.40
2023-05-14T19:05:54.345Z,51.60
2023-05-14T19:08:20.861Z,51.60
2023-05-14T19:10:47.454Z,51.70
2023-05-14T19:13:15.815Z,51.80
2023-05-14T19:15:42.949Z,51.90
2023-05-14T19:18:09.552Z,51.90
2023-05-14T19:20:36.121Z,52.00
2023-05-14T19:23:02.682Z,52.00
2023-05-14T19:25:29.546Z,52.10
2023-05-14T19:27:56.296Z,52.20
2023-05-14T19:30:23.398Z,52.20
2023-05-14T19:32:50.004Z,52.40
2023-05-14T19:35:16.808Z,52.60
2023-05-14T19:37:43.351Z,52.70
2023-05-14T19:40:09.996Z,52.70
2023-05-14T19:42:36.530Z,52.80
2023-05-14T19:45:03.875Z,52.90
2023-05-14T19:47:30.412Z,53.00
2023-05-14T19:49:56.966Z,53.10
2023-05-14T19:52:23.508Z,53.20
2023-05-14T19:54:50.034Z,53.40
2023-05-14T19:57:16.547Z,53.50
2023-05-14T19:59:44.325Z,53.60
2023-05-14T20:02:18.054Z,53.70
2023-05-14T20:04:45.970Z,53.70
2023-05-14T20:07:15.463Z,53.80
2023-05-14T20:09:41.998Z,53.90
2023-05-14T20:12:08.920Z,53.90
2023-05-14T20:14:35.884Z,54.00
2023-05-14T20:17:02.504Z,54.10
2023-05-14T20:19:29.073Z,54.20
2023-05-14T20:21:56.393Z,54.20
2023-05-14T20:24:22.949Z,54.20
2023-05-14T20:26:49.550Z,54.30
2023-05-14T20:29:16.240Z,54.40
2023-05-14T20:31:42.758Z,54.40
2023-05-14T20:34:09.427Z,54.40
2023-05-14T20:36:36.009Z,54.50
2023-05-14T20:39:02.832Z,54.60
2023-05-14T20:41:29.353Z,54.60
2023-05-14T20:43:55.907Z,54.60
2023-05-14T20:46:22.453Z,54.70
2023-05-14T20:48:49.092Z,54.70
2023-05-14T20:51:15.632Z,54.70
2023-05-14T20:53:42.154Z,54.70
2023-05-14T20:56:08.690Z,54.80
2023-05-14T20:58:35.395Z,54.90
2023-05-14T21:01:02.162Z,55.00
2023-05-14T21:03:28.744Z,55.00
2023-05-14T21:05:56.740Z,55.10
2023-05-14T21:08:23.338Z,55.20
2023-05-14T21:10:49.860Z,55.30
2023-05-14T21:13:16.387Z,55.40
2023-05-14T21:15:43.084Z,55.50
2023-05-14T21:18:09.804Z,55.60
2023-05-14T21:20:36.413Z,55.70
2023-05-14T21:23:02.927Z,55.70
2023-05-14T21:25:29.589Z,55.70
2023-05-14T21:27:56.413Z,55.80
2023-05-14T21:30:22.945Z,55.80
2023-05-14T21:32:49.498Z,55.80
2023-05-14T21:35:16.048Z,55.80
2023-05-14T21:37:42.596Z,55.90
2023-05-14T21:40:09.512Z,56.00
2023-05-14T21:42:36.180Z,56.00
2023-05-14T21:45:02.749Z,56.00
2023-05-14T21:47:29.452Z,56.00
2023-05-14T21:49:56.106Z,56.10
2023-05-14T21:52:22.631Z,56.20
2023-05-14T21:54:49.189Z,56.40
2023-05-14T21:57:15.725Z,56.40
2023-05-14T21:59:42.236Z,56.40
2023-05-14T22:02:08.789Z,56.50
2023-05-14T22:04:35.591Z,56.50
2023-05-14T22:07:02.198Z,56.50
2023-05-14T22:09:28.936Z,56.60
2023-05-14T22:11:56.344Z,56.60
2023-05-14T22:14:22.837Z,56.80
2023-05-14T22:16:49.423Z,56.80
2023-05-14T22:19:16.374Z,56.90
2023-05-14T22:21:43.048Z,57.00
2023-05-14T22:24:09.584Z,57.10
2023-05-14T22:26:36.116Z,57.10
2023-05-14T22:29:02.699Z,57.20
2023-05-14T22:31:29.509Z,57.20
2023-05-14T22:33:56.097Z,57.30
2023-05-14T22:36:23.004Z,57.30
2023-05-14T22:38:49.534Z,57.40
2023-05-14T22:41:17.463Z,57.40
2023-05-14T22:43:44.099Z,57.40
2023-05-14T22:46:10.779Z,57.50
2023-05-14T22:48:37.348Z,57.60
2023-05-14T22:51:03.920Z,57.60
2023-05-14T22:53:30.503Z,57.70
2023-05-14T22:55:57.022Z,57.70
2023-05-14T22:58:23.571Z,57.80
2023-05-14T23:00:50.120Z,57.90
2023-05-14T23:03:16.697Z,58.00
2023-05-14T23:05:43.255Z,58.00
2023-05-14T23:08:10.479Z,58.00
2023-05-14T23:10:36.999Z,58.10
2023-05-14T23:13:03.942Z,58.10
2023-05-14T23:15:30.566Z,58.10
2023-05-14T23:17:57.207Z,58.10
2023-05-14T23:20:23.780Z,58.20
2023-05-14T23:22:50.343Z,58.20
2023-05-14T23:25:16.852Z,58.30
2023-05-14T23:27:43.378Z,58.30
2023-05-14T23:30:10.313Z,58.40
2023-05-14T23:32:36.880Z,58.40
2023-05-14T23:35:03.665Z,58.40
2023-05-14T23:37:30.476Z,58.50
2023-05-14T23:39:57.054Z,58.60
2023-05-14T23:42:24.675Z,58.60
2023-05-14T23:44:51.200Z,58.70
2023-05-14T23:47:17.788Z,58.70
2023-05-14T23:49:44.326Z,58.80
2023-05-14T23:52:11.282Z,58.80
2023-05-14T23:54:38.833Z,58.80
2023-05-14T23:57:05.489Z,58.80
2023-05-14T23:59:32.052Z,58.80
